Donald, Oregon
Current Conditions -  °F | °C
As of 9:53 AM on Thursday 27 Nov 2014 (Local Time) from KUAO Reporting Station
Overcast Overcast  
Wind Chill: 55°   Ceiling: 4500
Heat Index: 55°   Visibility: 10mi
Dew Point: 49°   Wind: 12mph
Humidity: 80%   Direction: 190°S
Pressure: 30"   Gusts: NA
Location:  45.22°N, 122.84°W
Report Text: KUAO 271753Z AUTO 19010KT 10SM OVC045 13/09 A3000 RMK AO2 SLP158 60005 T01280094 10156 20122 51013
Loading
Personal Weather Stations






























Interactive Weather Map New forecast layout! Learn more

10-Day Weather Forecast

Advertisements
Track Severe Weather on mobile